Time;durP1;ratioP1;P1;durP2;ratioP2;P2;SDS_P1;SDS_P2;PMS_P1;PMS_P2;Temp;Humidity;BMP_temperature;BMP_pressure;BME280_temperature;BME280_humidity;BME280_pressure;Samples;Min_cycle;Max_cycle;Signal;HPM_P1;HPM_P2
2023/04/06 00:00:17;;;;;;;15.52;10.57;;;2.50;99.90;;;;;;2083474;28;20017;-67
2023/04/06 00:01:17;;;;;;;17.42;10.65;;;2.50;99.90;;;;;;2082851;28;20087;-66
2023/04/06 00:02:18;;;;;;;14.63;10.30;;;2.50;99.90;;;;;;2084857;28;20116;-67
2023/04/06 00:03:18;;;;;;;15.20;10.75;;;2.50;99.90;;;;;;2082725;28;20511;-68
2023/04/06 00:04:19;;;;;;;15.25;10.48;;;2.50;99.90;;;;;;2095415;28;20031;-67
2023/04/06 00:05:21;;;;;;;14.35;10.13;;;2.50;99.90;;;;;;2082535;28;20029;-67
2023/04/06 00:06:22;;;;;;;15.38;10.10;;;2.50;99.90;;;;;;2082648;28;20078;-68
2023/04/06 00:07:22;;;;;;;13.98;10.27;;;2.50;99.90;;;;;;2084792;28;20025;-66
2023/04/06 00:08:23;;;;;;;14.23;9.73;;;2.50;99.90;;;;;;2082625;28;20589;-66
2023/04/06 00:09:24;;;;;;;13.82;9.70;;;2.50;99.90;;;;;;2079526;28;20033;-67
2023/04/06 00:10:25;;;;;;;13.35;9.55;;;2.50;99.90;;;;;;2084033;28;20021;-67
2023/04/06 00:11:26;;;;;;;12.43;9.15;;;2.50;99.90;;;;;;2080079;28;20035;-66
2023/04/06 00:12:26;;;;;;;15.55;9.50;;;2.50;99.90;;;;;;2087684;28;20043;-67
2023/04/06 00:13:27;;;;;;;14.25;9.57;;;2.50;99.90;;;;;;2083656;28;20033;-67
2023/04/06 00:14:28;;;;;;;13.45;9.23;;;2.50;99.90;;;;;;2085485;28;20027;-67
2023/04/06 00:15:28;;;;;;;13.20;9.20;;;2.50;99.90;;;;;;2083420;28;20029;-67
2023/04/06 00:16:29;;;;;;;11.38;8.75;;;2.50;99.90;;;;;;2083454;28;20027;-77
2023/04/06 00:17:30;;;;;;;12.50;8.88;;;2.50;99.90;;;;;;2083499;28;20036;-77
2023/04/06 00:18:31;;;;;;;12.68;8.82;;;2.50;99.90;;;;;;2082599;28;20032;-76
2023/04/06 00:19:31;;;;;;;13.05;8.55;;;2.50;99.90;;;;;;2084542;28;20025;-77
2023/04/06 00:20:32;;;;;;;12.77;8.82;;;2.50;99.90;;;;;;2083344;28;20444;-77
2023/04/06 00:21:32;;;;;;;13.18;9.23;;;2.50;99.90;;;;;;2086536;28;20025;-77
2023/04/06 00:22:34;;;;;;;12.75;8.63;;;2.50;99.90;;;;;;2082573;28;20064;-76
2023/04/06 00:23:34;;;;;;;11.32;8.70;;;2.50;99.90;;;;;;2085386;28;20029;-76
2023/04/06 00:24:35;;;;;;;11.88;9.07;;;2.50;99.90;;;;;;2083167;28;20131;-77
2023/04/06 00:25:36;;;;;;;12.02;8.80;;;2.50;99.90;;;;;;2082757;28;20033;-77
2023/04/06 00:26:36;;;;;;;13.10;8.85;;;2.40;99.90;;;;;;2082633;28;20428;-77
2023/04/06 00:27:38;;;;;;;12.48;8.88;;;2.40;99.90;;;;;;2083238;28;20212;-76
2023/04/06 00:28:39;;;;;;;13.02;8.98;;;2.40;99.90;;;;;;2085343;28;20425;-77
2023/04/06 00:29:40;;;;;;;13.52;9.60;;;2.40;99.90;;;;;;2083524;28;20087;-77
2023/04/06 00:30:41;;;;;;;14.77;9.32;;;2.40;99.90;;;;;;2087826;28;20916;-77
2023/04/06 00:31:42;;;;;;;13.00;8.90;;;2.40;99.90;;;;;;2084206;28;20044;-77
2023/04/06 00:32:42;;;;;;;13.70;9.18;;;2.40;99.90;;;;;;2083201;28;20111;-77
2023/04/06 00:33:43;;;;;;;12.93;9.10;;;2.40;99.90;;;;;;2085297;28;20404;-77
2023/04/06 00:34:43;;;;;;;13.45;8.82;;;2.40;99.90;;;;;;2082445;28;20029;-78
2023/04/06 00:35:44;;;;;;;14.55;8.90;;;2.40;99.90;;;;;;2082445;28;20102;-77
2023/04/06 00:36:45;;;;;;;14.23;9.50;;;2.40;99.90;;;;;;2074258;28;20060;-69
2023/04/06 00:37:47;;;;;;;13.57;9.57;;;2.40;99.90;;;;;;2076349;28;20030;-69
2023/04/06 00:38:48;;;;;;;14.48;10.40;;;2.30;99.90;;;;;;2074722;28;20064;-78
2023/04/06 00:39:51;;;;;;;14.07;10.13;;;2.30;99.90;;;;;;2081993;28;20032;-69
2023/04/06 00:40:51;;;;;;;15.68;11.07;;;2.30;99.90;;;;;;2082747;28;20039;-71
2023/04/06 00:41:53;;;;;;;15.73;11.10;;;2.30;99.90;;;;;;2081371;28;20386;-69
2023/04/06 00:42:54;;;;;;;15.35;11.55;;;2.20;99.90;;;;;;2082945;28;20238;-68
2023/04/06 00:43:56;;;;;;;16.50;11.55;;;2.20;99.90;;;;;;2082288;28;20094;-68
2023/04/06 00:44:59;;;;;;;14.90;10.45;;;2.20;99.90;;;;;;2082449;28;20036;-69
2023/04/06 00:45:59;;;;;;;15.73;10.10;;;2.20;99.90;;;;;;2082521;28;20344;-68
2023/04/06 00:47:00;;;;;;;14.27;10.15;;;2.20;99.90;;;;;;2074388;28;20025;-68
2023/04/06 00:48:05;;;;;;;15.68;10.45;;;2.20;99.90;;;;;;2084291;28;20025;-68
2023/04/06 00:49:05;;;;;;;13.95;9.68;;;2.20;99.90;;;;;;2085834;28;20399;-68
2023/04/06 00:50:06;;;;;;;13.40;9.85;;;2.20;99.90;;;;;;2082916;28;20032;-68
2023/04/06 00:51:08;;;;;;;13.60;9.95;;;2.20;99.90;;;;;;2082297;28;20055;-68
2023/04/06 00:52:08;;;;;;;14.75;9.63;;;2.20;99.90;;;;;;2082059;28;20039;-68
2023/04/06 00:53:09;;;;;;;14.75;9.52;;;2.20;99.90;;;;;;2084218;28;20029;-68
2023/04/06 00:54:10;;;;;;;15.15;9.43;;;2.20;99.90;;;;;;2082283;28;20029;-68
2023/04/06 00:55:10;;;;;;;13.25;9.18;;;2.20;99.90;;;;;;2077616;28;20116;-68
2023/04/06 00:56:15;;;;;;;11.65;8.73;;;2.20;99.90;;;;;;2074371;28;20025;-68
2023/04/06 00:57:27;;;;;;;14.95;8.82;;;2.30;99.90;;;;;;2075476;28;20022;-68
2023/04/06 00:58:30;;;;;;;10.85;7.93;;;2.30;99.90;;;;;;2082532;28;20094;-68
2023/04/06 00:59:38;;;;;;;12.98;8.60;;;2.30;99.90;;;;;;2082077;28;20381;-69
2023/04/06 01:00:42;;;;;;;14.23;9.13;;;2.30;99.90;;;;;;2076388;28;20038;-68
2023/04/06 01:01:48;;;;;;;13.02;9.15;;;2.30;99.90;;;;;;2084151;28;20024;-68
2023/04/06 01:03:06;;;;;;;14.32;9.50;;;2.30;99.90;;;;;;2090574;28;20061;-68
2023/04/06 01:04:13;;;;;;;14.07;9.30;;;2.20;99.90;;;;;;2082253;28;20509;-68
2023/04/06 01:05:16;;;;;;;15.07;9.63;;;2.20;99.90;;;;;;2082500;28;20032;-69
2023/04/06 01:06:24;;;;;;;12.93;9.10;;;2.20;99.90;;;;;;2082189;28;20507;-69
2023/04/06 01:07:35;;;;;;;12.98;9.05;;;2.20;99.90;;;;;;2075433;28;20037;-69
2023/04/06 01:08:49;;;;;;;13.18;9.52;;;2.10;99.90;;;;;;2074066;28;20082;-69
2023/04/06 01:09:54;;;;;;;13.18;9.00;;;2.10;99.90;;;;;;2073086;28;20048;-68
2023/04/06 01:11:03;;;;;;;13.00;9.23;;;2.10;99.90;;;;;;2074252;28;20030;-69
2023/04/06 01:12:04;;;;;;;11.55;8.55;;;2.10;99.90;;;;;;2074686;28;20025;-70
2023/04/06 01:13:08;;;;;;;14.10;9.13;;;2.00;99.90;;;;;;2074013;28;20048;-68
2023/04/06 01:14:29;;;;;;;13.95;9.23;;;2.00;99.90;;;;;;2082233;28;20056;-70
2023/04/06 01:15:35;;;;;;;14.55;9.55;;;2.00;99.90;;;;;;2082337;28;20072;-69
2023/04/06 01:16:37;;;;;;;13.18;9.20;;;2.00;99.90;;;;;;2074427;28;20079;-69
2023/04/06 01:17:43;;;;;;;14.05;9.45;;;2.00;99.90;;;;;;2074689;28;20033;-69
2023/04/06 01:18:48;;;;;;;13.88;9.18;;;2.00;99.90;;;;;;2075227;28;20110;-69
2023/04/06 01:19:53;;;;;;;12.93;9.30;;;2.00;99.90;;;;;;2072622;28;20087;-70
2023/04/06 01:21:01;;;;;;;13.07;9.30;;;2.00;99.90;;;;;;2077012;28;20041;-69
2023/04/06 01:22:02;;;;;;;12.73;9.10;;;2.00;99.90;;;;;;2073969;28;20025;-70
2023/04/06 01:23:05;;;;;;;12.98;9.38;;;2.00;99.90;;;;;;2082334;28;20023;-68
2023/04/06 01:24:08;;;;;;;14.90;9.27;;;2.00;99.90;;;;;;2079263;28;20027;-68
2023/04/06 01:25:23;;;;;;;13.20;9.30;;;2.00;99.90;;;;;;2076072;28;20488;-68
2023/04/06 01:26:42;;;;;;;15.15;9.07;;;2.00;99.90;;;;;;2078011;28;20499;-69
2023/04/06 01:27:44;;;;;;;12.85;8.27;;;2.00;99.90;;;;;;2074391;28;20025;-68
2023/04/06 01:29:11;;;;;;;11.00;8.02;;;2.00;99.90;;;;;;2051137;28;20100;-69
2023/04/06 01:30:12;;;;;;;13.52;8.60;;;2.00;99.90;;;;;;2084710;28;20055;-68
2023/04/06 01:31:22;;;;;;;14.40;8.38;;;2.00;99.90;;;;;;2084136;28;20029;-69
2023/04/06 01:32:25;;;;;;;13.75;8.45;;;2.00;99.90;;;;;;2082483;28;20145;-70
2023/04/06 01:33:26;;;;;;;13.55;8.65;;;2.00;99.90;;;;;;2086293;28;20468;-70
2023/04/06 01:34:35;;;;;;;14.40;9.00;;;2.10;99.90;;;;;;2087725;28;20029;-69
2023/04/06 01:35:38;;;;;;;11.75;7.95;;;2.00;99.90;;;;;;2084220;28;20029;-69
2023/04/06 01:36:51;;;;;;;11.57;8.57;;;2.00;99.90;;;;;;2080394;28;20238;-69
2023/04/06 01:38:02;;;;;;;13.85;8.80;;;2.00;99.90;;;;;;2074896;28;20573;-69
2023/04/06 01:39:06;;;;;;;12.10;8.32;;;2.00;99.90;;;;;;2082243;28;20086;-70
2023/04/06 01:40:11;;;;;;;12.98;8.30;;;2.00;99.90;;;;;;2074215;28;20040;-69
2023/04/06 01:41:18;;;;;;;14.00;8.18;;;2.00;99.90;;;;;;2074801;28;20496;-68
2023/04/06 01:42:26;;;;;;;13.57;8.75;;;2.00;99.90;;;;;;2075520;28;20029;-69
2023/04/06 01:43:26;;;;;;;14.18;8.93;;;2.00;99.90;;;;;;2071299;28;20033;-69
2023/04/06 01:44:39;;;;;;;12.57;8.93;;;2.00;99.90;;;;;;2079958;28;20055;-69
2023/04/06 01:45:47;;;;;;;12.52;8.95;;;2.00;99.90;;;;;;2075357;28;20044;-69
2023/04/06 01:46:52;;;;;;;12.27;8.65;;;2.00;99.90;;;;;;2075472;28;20029;-69
2023/04/06 01:47:53;;;;;;;12.15;8.65;;;2.00;99.90;;;;;;2081946;28;20115;-69
2023/04/06 01:48:57;;;;;;;13.80;9.30;;;2.00;99.90;;;;;;2074052;28;20033;-69
2023/04/06 01:50:10;;;;;;;14.30;8.98;;;2.00;99.90;;;;;;2075325;28;20377;-69
2023/04/06 01:51:16;;;;;;;14.18;9.30;;;2.00;99.90;;;;;;2074318;28;20064;-68
2023/04/06 01:52:29;;;;;;;14.55;9.68;;;1.90;99.90;;;;;;2071126;28;20030;-69
2023/04/06 01:53:30;;;;;;;15.82;10.13;;;2.00;99.90;;;;;;2078993;28;20366;-69
2023/04/06 01:54:36;;;;;;;19.70;11.55;;;2.00;99.90;;;;;;2078503;28;20175;-68
2023/04/06 01:55:45;;;;;;;23.90;12.15;;;1.90;99.90;;;;;;2075423;28;20373;-70
2023/04/06 01:57:05;;;;;;;17.98;10.60;;;1.90;99.90;;;;;;2075522;28;20111;-68
2023/04/06 01:58:13;;;;;;;16.65;10.02;;;1.90;99.90;;;;;;2075507;28;20038;-69
2023/04/06 01:59:14;;;;;;;14.45;9.20;;;1.90;99.90;;;;;;2085557;28;20426;-69
2023/04/06 02:00:17;;;;;;;16.42;9.98;;;1.90;99.90;;;;;;2078317;28;20547;-68
2023/04/06 02:01:24;;;;;;;16.17;9.80;;;1.90;99.90;;;;;;2086602;28;20067;-69
2023/04/06 02:02:30;;;;;;;21.35;12.07;;;1.90;99.90;;;;;;2074604;28;20266;-69
2023/04/06 02:03:37;;;;;;;20.13;11.32;;;1.90;99.90;;;;;;2082408;28;20040;-69
2023/04/06 02:04:43;;;;;;;16.58;9.88;;;1.80;99.90;;;;;;2080703;28;20121;-69
2023/04/06 02:05:47;;;;;;;14.70;9.32;;;1.80;99.90;;;;;;2079658;28;20499;-70
2023/04/06 02:07:06;;;;;;;17.00;9.98;;;1.80;99.90;;;;;;2086104;28;20035;-70
2023/04/06 02:08:07;;;;;;;15.45;9.48;;;1.80;99.90;;;;;;2085694;28;20037;-68
2023/04/06 02:09:10;;;;;;;14.98;9.57;;;1.70;99.90;;;;;;2083407;28;20086;-69
2023/04/06 02:10:13;;;;;;;15.13;9.15;;;1.70;99.90;;;;;;2075633;28;20579;-70
2023/04/06 02:11:13;;;;;;;13.93;9.25;;;1.70;99.90;;;;;;2084292;28;20033;-69
2023/04/06 02:12:19;;;;;;;15.63;9.15;;;1.70;99.90;;;;;;2082209;28;20199;-68
2023/04/06 02:13:20;;;;;;;17.20;10.63;;;1.70;99.90;;;;;;2080406;28;20040;-68
2023/04/06 02:14:25;;;;;;;18.50;10.63;;;1.70;99.90;;;;;;2087150;28;20024;-68
2023/04/06 02:15:28;;;;;;;21.63;11.35;;;1.70;99.90;;;;;;2067930;28;20112;-70
2023/04/06 02:16:29;;;;;;;18.85;11.02;;;1.70;99.90;;;;;;2082375;28;20083;-70
2023/04/06 02:17:30;;;;;;;17.17;10.30;;;1.70;99.90;;;;;;2082823;28;20447;-69
2023/04/06 02:18:31;;;;;;;20.15;11.65;;;1.70;99.90;;;;;;2080007;28;20055;-69
2023/04/06 02:19:32;;;;;;;22.25;11.82;;;1.70;99.90;;;;;;2093428;28;20046;-69
2023/04/06 02:20:32;;;;;;;22.60;12.15;;;1.70;99.90;;;;;;2094325;28;20364;-70
2023/04/06 02:21:33;;;;;;;20.70;12.05;;;1.60;99.90;;;;;;2088116;28;20319;-69
2023/04/06 02:22:35;;;;;;;19.65;11.13;;;1.60;99.90;;;;;;2081504;28;20554;-69
2023/04/06 02:23:35;;;;;;;20.15;11.63;;;1.60;99.90;;;;;;2085094;28;20029;-68
2023/04/06 02:24:36;;;;;;;19.35;11.07;;;1.60;99.90;;;;;;2081191;28;20036;-69
2023/04/06 02:25:36;;;;;;;17.15;10.45;;;1.60;99.90;;;;;;2075109;28;20033;-69
2023/04/06 02:26:37;;;;;;;16.52;9.95;;;1.60;99.90;;;;;;2077859;28;20176;-69
2023/04/06 02:27:38;;;;;;;15.60;9.93;;;1.50;99.90;;;;;;2086127;28;20033;-70
2023/04/06 02:28:39;;;;;;;15.55;9.85;;;1.50;99.90;;;;;;2076110;28;20294;-69
2023/04/06 02:29:40;;;;;;;19.35;11.25;;;1.60;99.90;;;;;;2085907;28;20712;-70
2023/04/06 02:30:41;;;;;;;25.67;13.23;;;1.50;99.90;;;;;;2085857;28;20109;-70
2023/04/06 02:31:41;;;;;;;28.75;13.85;;;1.50;99.90;;;;;;2082643;28;20033;-69
2023/04/06 02:32:43;;;;;;;26.33;13.15;;;1.50;99.90;;;;;;2084539;28;20029;-69
2023/04/06 02:33:43;;;;;;;24.05;12.65;;;1.40;99.90;;;;;;2084851;28;20033;-69
2023/04/06 02:34:45;;;;;;;22.30;12.30;;;1.40;99.90;;;;;;2080132;28;20072;-69
2023/04/06 02:35:46;;;;;;;23.20;12.65;;;1.40;99.90;;;;;;2083649;28;20033;-69
2023/04/06 02:36:47;;;;;;;23.70;12.50;;;1.40;99.90;;;;;;2080991;28;20033;-70
2023/04/06 02:37:48;;;;;;;21.27;11.93;;;1.40;99.90;;;;;;2081644;28;20435;-69
2023/04/06 02:38:48;;;;;;;21.00;11.60;;;1.40;99.90;;;;;;2081581;28;20021;-69
2023/04/06 02:39:49;;;;;;;17.90;10.32;;;1.30;99.90;;;;;;2081816;28;20044;-67
2023/04/06 02:40:50;;;;;;;22.42;11.95;;;1.30;99.90;;;;;;2083778;28;20032;-69
2023/04/06 02:41:59;;;;;;;18.65;11.15;;;1.30;99.90;;;;;;2074365;28;20040;-69
2023/04/06 02:43:00;;;;;;;20.95;10.88;;;1.30;99.90;;;;;;2075515;28;20091;-68
2023/04/06 02:44:08;;;;;;;17.63;10.27;;;1.30;99.90;;;;;;2075992;28;20480;-69
2023/04/06 02:45:13;;;;;;;18.42;10.60;;;1.30;99.90;;;;;;2071866;28;20040;-68
2023/04/06 02:46:18;;;;;;;18.55;10.90;;;1.30;99.90;;;;;;2077861;28;20424;-68
2023/04/06 02:47:18;;;;;;;17.25;10.50;;;1.20;99.90;;;;;;2079942;28;20032;-68
2023/04/06 02:48:22;;;;;;;19.42;11.40;;;1.20;99.90;;;;;;2081654;28;20024;-68
2023/04/06 02:49:23;;;;;;;21.90;12.18;;;1.20;99.90;;;;;;2079751;28;20481;-69
2023/04/06 02:50:27;;;;;;;21.58;11.90;;;1.20;99.90;;;;;;2087405;28;20590;-68
2023/04/06 02:51:33;;;;;;;19.95;12.20;;;1.10;99.90;;;;;;2078271;28;20050;-69
2023/04/06 02:52:46;;;;;;;19.13;11.75;;;1.20;99.90;;;;;;2084007;28;20095;-69
2023/04/06 02:53:46;;;;;;;17.40;11.27;;;1.10;99.90;;;;;;2081990;28;20958;-70
2023/04/06 02:54:48;;;;;;;15.77;10.27;;;1.10;99.90;;;;;;2081479;28;20029;-69
2023/04/06 02:55:56;;;;;;;15.82;9.40;;;1.10;99.90;;;;;;2080526;28;20025;-69
2023/04/06 02:57:00;;;;;;;15.20;9.55;;;1.10;99.90;;;;;;2078634;28;20330;-70
2023/04/06 02:58:10;;;;;;;12.63;8.60;;;1.10;99.90;;;;;;2081844;28;20025;-69
2023/04/06 02:59:18;;;;;;;13.02;9.10;;;1.00;99.90;;;;;;2081352;28;20021;-70
2023/04/06 03:00:28;;;;;;;16.67;10.02;;;1.00;99.90;;;;;;2067323;28;20089;-69
2023/04/06 03:01:28;;;;;;;17.88;11.20;;;1.00;99.90;;;;;;2074644;28;20037;-69
2023/04/06 03:02:33;;;;;;;16.70;10.50;;;1.00;99.90;;;;;;2089717;28;20098;-70
2023/04/06 03:03:41;;;;;;;20.05;11.18;;;1.10;99.90;;;;;;2082390;28;20443;-69
2023/04/06 03:04:47;;;;;;;18.05;11.10;;;1.00;99.90;;;;;;2076303;28;20559;-69
2023/04/06 03:05:59;;;;;;;18.73;10.63;;;1.00;99.90;;;;;;2078735;28;20052;-70
2023/04/06 03:07:02;;;;;;;16.42;10.73;;;1.00;99.90;;;;;;2076677;28;20087;-70
2023/04/06 03:08:10;;;;;;;18.55;11.20;;;1.00;99.90;;;;;;2077516;28;20073;-69
2023/04/06 03:09:16;;;;;;;17.85;10.68;;;1.00;99.90;;;;;;2074462;28;20033;-70
2023/04/06 03:10:18;;;;;;;16.58;10.55;;;1.00;99.90;;;;;;2074843;28;20014;-69
2023/04/06 03:11:21;;;;;;;18.63;11.25;;;1.00;99.90;;;;;;2075237;28;20585;-70
2023/04/06 03:12:24;;;;;;;16.17;10.45;;;1.00;99.90;;;;;;2074826;28;20448;-69
2023/04/06 03:13:45;;;;;;;15.60;10.30;;;0.90;99.90;;;;;;2082937;28;20067;-69
2023/04/06 03:14:46;;;;;;;17.35;10.85;;;0.90;99.90;;;;;;2082952;28;20044;-69
2023/04/06 03:15:47;;;;;;;21.95;13.65;;;0.90;99.90;;;;;;2083007;28;20474;-68
2023/04/06 03:16:51;;;;;;;19.02;12.27;;;0.90;99.90;;;;;;2066783;28;20077;-69
2023/04/06 03:17:55;;;;;;;18.73;11.85;;;0.90;99.90;;;;;;2072186;28;20171;-68
2023/04/06 03:19:15;;;;;;;18.52;11.57;;;0.90;99.90;;;;;;2075203;28;20034;-68
2023/04/06 03:20:16;;;;;;;17.67;11.77;;;0.80;99.90;;;;;;2079676;28;20037;-69
2023/04/06 03:21:17;;;;;;;17.23;10.88;;;0.90;99.90;;;;;;2081499;28;20041;-69
2023/04/06 03:22:22;;;;;;;15.65;10.68;;;0.90;99.90;;;;;;2081698;28;20032;-69
2023/04/06 03:23:22;;;;;;;14.48;10.65;;;0.80;99.90;;;;;;2082207;28;20358;-69
2023/04/06 03:24:27;;;;;;;15.73;11.00;;;0.80;99.90;;;;;;2075356;28;20067;-68
2023/04/06 03:25:29;;;;;;;16.83;11.10;;;0.80;99.90;;;;;;2083223;28;20079;-68
2023/04/06 03:26:34;;;;;;;14.18;10.05;;;0.80;99.90;;;;;;2083091;28;20120;-68
2023/04/06 03:27:39;;;;;;;14.88;9.77;;;0.80;99.90;;;;;;2075280;28;20120;-69
2023/04/06 03:28:42;;;;;;;14.77;10.40;;;0.80;99.90;;;;;;2083597;28;20025;-70
2023/04/06 03:29:43;;;;;;;14.55;10.35;;;0.80;99.90;;;;;;2084995;28;20028;-68
2023/04/06 03:30:47;;;;;;;13.93;9.82;;;0.80;99.90;;;;;;2079862;28;20504;-68
2023/04/06 03:31:51;;;;;;;14.77;10.40;;;0.80;99.90;;;;;;2079781;28;20061;-68
2023/04/06 03:33:18;;;;;;;14.55;10.35;;;0.70;99.90;;;;;;2080377;28;20124;-68
2023/04/06 03:34:26;;;;;;;16.90;9.93;;;0.70;99.90;;;;;;2084910;28;20146;-68
2023/04/06 03:35:26;;;;;;;15.82;9.85;;;0.70;99.90;;;;;;2084200;28;20048;-68
2023/04/06 03:36:27;;;;;;;15.55;9.82;;;0.70;99.90;;;;;;2074866;28;20037;-68
2023/04/06 03:37:30;;;;;;;14.65;9.75;;;0.60;99.90;;;;;;2082984;28;20052;-70
2023/04/06 03:38:35;;;;;;;14.80;9.80;;;0.70;99.90;;;;;;2080479;28;20120;-68
2023/04/06 03:39:41;;;;;;;14.77;9.70;;;0.60;99.90;;;;;;2083459;28;20041;-68
2023/04/06 03:40:42;;;;;;;13.57;9.73;;;0.60;99.90;;;;;;2084728;28;20033;-70
2023/04/06 03:41:44;;;;;;;15.75;9.65;;;0.60;99.90;;;;;;2077037;28;20029;-68
2023/04/06 03:43:00;;;;;;;14.80;9.40;;;0.60;99.90;;;;;;2075416;28;20048;-67
2023/04/06 03:44:01;;;;;;;13.63;9.68;;;0.60;99.90;;;;;;2083060;28;20033;-68
2023/04/06 03:45:02;;;;;;;14.93;9.75;;;0.60;99.90;;;;;;2074699;28;20032;-68
2023/04/06 03:46:04;;;;;;;13.98;9.43;;;0.50;99.90;;;;;;2076613;28;20029;-68
2023/04/06 03:47:04;;;;;;;16.33;10.00;;;0.50;99.90;;;;;;2084560;28;20121;-68
2023/04/06 03:48:05;;;;;;;14.68;9.88;;;0.50;99.90;;;;;;2083734;28;20017;-68
2023/04/06 03:49:09;;;;;;;13.52;9.63;;;0.50;99.90;;;;;;2082835;28;20086;-69
2023/04/06 03:50:10;;;;;;;13.27;9.20;;;0.50;99.90;;;;;;2082970;28;20341;-68
2023/04/06 03:51:11;;;;;;;13.50;9.43;;;0.50;99.90;;;;;;2080714;28;20410;-68
2023/04/06 03:52:11;;;;;;;11.57;8.70;;;0.50;99.90;;;;;;2082645;28;20075;-68
2023/04/06 03:53:12;;;;;;;19.15;9.73;;;0.50;99.90;;;;;;2082966;28;20037;-68
2023/04/06 03:54:12;;;;;;;14.93;9.10;;;0.50;99.90;;;;;;2074632;28;20022;-68
2023/04/06 03:55:13;;;;;;;14.77;9.52;;;0.50;99.90;;;;;;2080607;28;20590;-68
2023/04/06 03:56:13;;;;;;;13.88;9.30;;;0.50;99.90;;;;;;2087481;28;20028;-68
2023/04/06 03:57:14;;;;;;;15.60;9.18;;;0.40;99.90;;;;;;2083656;28;20500;-68
2023/04/06 03:58:15;;;;;;;13.93;9.50;;;0.40;99.90;;;;;;2082773;28;20025;-68
2023/04/06 03:59:15;;;;;;;14.90;9.75;;;0.40;99.90;;;;;;2082683;28;20029;-69
2023/04/06 04:00:16;;;;;;;13.85;9.95;;;0.40;99.90;;;;;;2083558;28;20035;-68
2023/04/06 04:01:20;;;;;;;13.70;9.13;;;0.40;99.90;;;;;;2083610;28;20063;-68
2023/04/06 04:02:21;;;;;;;15.18;9.50;;;0.40;99.90;;;;;;2083363;28;20408;-68
2023/04/06 04:03:23;;;;;;;14.63;9.70;;;0.40;99.90;;;;;;2083500;28;20048;-68
2023/04/06 04:04:23;;;;;;;14.40;9.43;;;0.40;99.90;;;;;;2083506;28;20108;-68
2023/04/06 04:05:25;;;;;;;14.25;9.38;;;0.50;99.90;;;;;;2085453;28;20059;-69
2023/04/06 04:06:26;;;;;;;16.30;10.02;;;0.40;99.90;;;;;;2095527;28;20550;-69
2023/04/06 04:07:27;;;;;;;17.38;10.27;;;0.50;99.90;;;;;;2091186;28;20017;-67
2023/04/06 04:08:27;;;;;;;16.25;9.95;;;0.50;99.90;;;;;;2086861;28;20111;-66
2023/04/06 04:09:28;;;;;;;15.07;9.98;;;0.50;99.90;;;;;;2075858;28;20148;-67
2023/04/06 04:10:29;;;;;;;13.60;9.88;;;0.50;99.90;;;;;;2092754;28;20024;-67
2023/04/06 04:11:29;;;;;;;15.98;10.32;;;0.50;99.90;;;;;;2082750;28;20032;-67
2023/04/06 04:12:32;;;;;;;15.93;10.25;;;0.50;99.90;;;;;;2082802;28;20052;-67
2023/04/06 04:13:33;;;;;;;17.42;10.60;;;0.60;99.90;;;;;;2074574;28;20186;-68
2023/04/06 04:14:36;;;;;;;20.38;10.98;;;0.50;99.90;;;;;;2074734;28;20360;-67
2023/04/06 04:15:37;;;;;;;19.75;11.55;;;0.50;99.90;;;;;;2083803;28;20484;-68
2023/04/06 04:16:39;;;;;;;21.27;11.20;;;0.50;99.90;;;;;;2088220;28;20085;-67
2023/04/06 04:17:39;;;;;;;18.90;10.27;;;0.50;99.90;;;;;;2082582;28;20047;-68
2023/04/06 04:18:40;;;;;;;18.15;10.88;;;0.50;99.90;;;;;;2074472;28;20045;-67
2023/04/06 04:19:41;;;;;;;20.13;10.45;;;0.50;99.90;;;;;;2083808;28;20057;-67
2023/04/06 04:20:41;;;;;;;16.83;10.27;;;0.50;99.90;;;;;;2088209;28;20029;-67
2023/04/06 04:21:46;;;;;;;15.70;10.13;;;0.50;99.90;;;;;;2079508;28;20095;-68
2023/04/06 04:22:50;;;;;;;17.17;10.20;;;0.50;99.90;;;;;;2083731;28;20044;-68
2023/04/06 04:23:50;;;;;;;17.55;10.50;;;0.50;99.90;;;;;;2091113;28;20028;-68
2023/04/06 04:24:51;;;;;;;15.95;9.68;;;0.60;99.90;;;;;;2084564;28;20444;-68
2023/04/06 04:25:52;;;;;;;16.20;10.10;;;0.50;99.90;;;;;;2075090;28;20041;-69
2023/04/06 04:26:52;;;;;;;14.93;9.57;;;0.50;99.90;;;;;;2088753;28;20025;-68
2023/04/06 04:27:54;;;;;;;15.48;10.05;;;0.50;99.90;;;;;;2082491;28;20020;-68
2023/04/06 04:28:56;;;;;;;17.35;9.98;;;0.50;99.90;;;;;;2074220;28;20299;-68
2023/04/06 04:29:56;;;;;;;15.45;9.65;;;0.50;99.90;;;;;;2072225;28;20014;-68
2023/04/06 04:30:57;;;;;;;15.65;10.27;;;0.50;99.90;;;;;;2082538;28;20543;-68
2023/04/06 04:31:58;;;;;;;16.50;9.98;;;0.50;99.90;;;;;;2082337;28;20160;-67
2023/04/06 04:32:58;;;;;;;15.45;10.27;;;0.50;99.90;;;;;;2074209;28;20041;-68
2023/04/06 04:33:59;;;;;;;16.38;10.52;;;0.50;99.90;;;;;;2076024;28;20029;-68
2023/04/06 04:35:04;;;;;;;14.07;9.95;;;0.50;99.90;;;;;;2087199;28;20070;-68
2023/04/06 04:36:10;;;;;;;26.50;12.27;;;0.50;99.90;;;;;;2079074;28;20222;-68
2023/04/06 04:37:15;;;;;;;27.88;13.18;;;0.60;99.90;;;;;;2085363;28;20320;-68
2023/04/06 04:38:24;;;;;;;23.23;12.27;;;1.60;99.90;;;;;;2086451;28;20024;-69
2023/04/06 04:39:27;;;;;;;23.08;13.60;;;1.90;99.90;;;;;;2074801;28;20092;-68
2023/04/06 04:40:35;;;;;;;19.13;12.25;;;1.90;99.90;;;;;;2077928;28;20128;-68
2023/04/06 04:41:42;;;;;;;19.42;11.82;;;1.80;99.90;;;;;;2083026;28;20033;-68
2023/04/06 04:42:46;;;;;;;15.70;10.75;;;1.70;99.90;;;;;;2082800;28;20393;-68
2023/04/06 04:43:53;;;;;;;16.20;10.82;;;1.60;99.90;;;;;;2083194;28;20472;-68
2023/04/06 04:44:56;;;;;;;16.30;10.60;;;1.50;99.90;;;;;;2082648;28;20140;-68
2023/04/06 04:46:13;;;;;;;16.55;10.80;;;1.40;99.90;;;;;;2076624;28;20286;-68
2023/04/06 04:47:16;;;;;;;14.93;10.63;;;1.20;99.90;;;;;;2074583;28;20025;-68
2023/04/06 04:48:20;;;;;;;18.35;11.05;;;1.10;99.90;;;;;;2074428;28;20037;-69
2023/04/06 04:49:28;;;;;;;17.60;10.57;;;1.00;99.90;;;;;;2082544;28;20025;-68
2023/04/06 04:50:29;;;;;;;18.02;10.38;;;1.00;99.90;;;;;;2082327;28;20420;-68
2023/04/06 04:51:33;;;;;;;19.35;10.65;;;0.90;99.90;;;;;;2070932;28;20061;-69
2023/04/06 04:52:43;;;;;;;16.17;10.95;;;0.90;99.90;;;;;;2074259;28;20037;-68
2023/04/06 04:53:49;;;;;;;16.65;11.40;;;0.80;99.90;;;;;;2083708;28;20032;-68
2023/04/06 04:54:55;;;;;;;17.58;11.13;;;0.80;99.90;;;;;;2080883;28;20025;-68
2023/04/06 04:56:01;;;;;;;19.77;10.93;;;0.80;99.90;;;;;;2080830;28;20484;-68
2023/04/06 04:57:02;;;;;;;19.58;11.95;;;0.70;99.90;;;;;;2082823;28;20446;-69
2023/04/06 04:58:19;;;;;;;18.80;11.55;;;0.70;99.90;;;;;;2082729;28;20049;-70
2023/04/06 04:59:25;;;;;;;18.13;11.48;;;0.70;99.90;;;;;;2074394;28;20028;-69
2023/04/06 05:00:34;;;;;;;16.98;10.50;;;0.70;99.90;;;;;;2074623;28;20036;-70
2023/04/06 05:01:35;;;;;;;16.58;10.75;;;0.70;99.90;;;;;;2075107;28;20021;-68
2023/04/06 05:02:36;;;;;;;18.88;11.00;;;0.70;99.90;;;;;;2073987;28;20037;-68
2023/04/06 05:04:08;;;;;;;17.75;10.63;;;0.80;99.90;;;;;;2076967;28;20249;-68
2023/04/06 05:05:09;;;;;;;18.27;11.40;;;0.90;99.90;;;;;;2083684;28;20029;-69
2023/04/06 05:06:10;;;;;;;16.15;11.25;;;1.00;99.90;;;;;;2082181;28;20595;-70
2023/04/06 05:07:15;;;;;;;18.08;10.70;;;1.20;99.90;;;;;;2074312;28;20116;-69
2023/04/06 05:08:16;;;;;;;17.15;10.88;;;1.30;99.90;;;;;;2073660;28;20504;-69
2023/04/06 05:09:20;;;;;;;18.27;10.73;;;1.50;99.90;;;;;;2071227;28;20102;-69
2023/04/06 05:10:20;;;;;;;17.80;10.13;;;1.70;99.90;;;;;;2082138;28;20025;-72
2023/04/06 05:11:28;;;;;;;14.57;10.10;;;1.90;99.90;;;;;;2087109;28;20040;-70
2023/04/06 05:12:34;;;;;;;15.57;10.50;;;2.10;99.90;;;;;;2086932;28;20037;-68
2023/04/06 05:13:42;;;;;;;17.00;10.43;;;2.40;99.90;;;;;;2079141;28;20040;-70
2023/04/06 05:14:51;;;;;;;14.38;10.02;;;2.60;99.90;;;;;;2075230;28;20022;-75
2023/04/06 05:15:53;;;;;;;16.25;10.45;;;2.90;99.90;;;;;;2073714;28;20134;-69
2023/04/06 05:17:00;;;;;;;17.58;10.20;;;3.10;99.90;;;;;;2074716;28;20516;-70
2023/04/06 05:18:01;;;;;;;18.83;10.40;;;3.20;99.90;;;;;;2082248;28;20071;-70
2023/04/06 05:19:06;;;;;;;16.83;10.40;;;3.40;99.90;;;;;;2083985;28;20021;-70
2023/04/06 05:20:14;;;;;;;18.42;10.70;;;3.70;99.90;;;;;;2072679;28;20028;-76
2023/04/06 05:21:21;;;;;;;21.52;11.32;;;3.90;99.90;;;;;;2075290;28;20029;-71
2023/04/06 05:22:29;;;;;;;20.50;11.80;;;4.00;99.90;;;;;;2072107;28;20248;-70
2023/04/06 05:23:50;;;;;;;;;;;4.20;99.90;;;;;;2082863;28;20060;-75
2023/04/06 05:24:50;;;;;;;21.23;12.50;;;4.40;99.90;;;;;;2081950;28;20299;-68
2023/04/06 05:25:51;;;;;;;23.17;12.68;;;4.60;99.90;;;;;;2071023;28;20143;-68
2023/04/06 05:26:55;;;;;;;19.60;12.55;;;4.70;99.90;;;;;;2069369;28;20516;-69
2023/04/06 05:27:58;;;;;;;21.48;12.68;;;4.70;99.90;;;;;;2081981;28;20028;-70
2023/04/06 05:29:08;;;;;;;22.98;12.80;;;4.80;99.90;;;;;;2080855;28;20025;-69
2023/04/06 05:30:11;;;;;;;25.17;15.07;;;4.80;99.90;;;;;;2081934;28;20028;-68
2023/04/06 05:31:18;;;;;;;22.90;13.73;;;4.70;99.90;;;;;;2085274;28;20140;-67